Flight Track Log - Related Links

Times and Time Zones

All times are in EDT time to prevent confusion due to time zone crossing. See the FDX1409 flight status page for this flight to view local times or setup timezone preferences in your user account.

Time Position Orientation Groundspeed Altitude Reporting Facility
EDT Latitude Longitude Course Direction KTS MPH feet Rate Location/Type
Fri 04:36:30 AM 35.0333 -89.9833 180° South 175 201 1,200  Level KMEM
Fri 04:37:24 AM 34.9833 -89.9833 180° South 201 231 3,600 3,211 Climbing KMEM
Fri 04:38:24 AM 34.9000 -89.9833 180° South 280 322 7,300 3,776 Climbing KMEM
Fri 04:39:20 AM 34.8331 -89.9878 183° South 267 307 10,900 3,724 Climbing Memphis Center
Fri 04:40:20 AM 34.7594 -89.9275 146° Southeast 322 371 14,500 2,900 Climbing Memphis Center
Fri 04:41:20 AM 34.6864 -89.8383 135° Southeast 383 441 16,700 2,628 Climbing Memphis Center
Fri 04:42:21 AM 34.6114 -89.7231 128° Southeast 434 499 19,800 3,025 Climbing Memphis Center
Fri 04:43:21 AM 34.5319 -89.6008 128° Southeast 456 525 22,800 2,975 Climbing Memphis Center
Fri 04:44:22 AM 34.4486 -89.4744 129° Southeast 472 543 25,800 2,727 Climbing Memphis Center
Fri 04:45:22 AM 34.3650 -89.3458 128° Southeast 482 555 28,300 3,200 Climbing Memphis Center
Fri 04:46:22 AM 34.2819 -89.2214 129° Southeast 482 555 32,200 3,025 Climbing Memphis Center
Fri 04:47:23 AM 34.2025 -89.1033 129° Southeast 459 528 34,400 1,736 Climbing Memphis Center
Fri 04:48:23 AM 34.1231 -88.9831 129° Southeast 459 528 35,700 1,050 Climbing Memphis Center
Fri 04:49:23 AM 34.0417 -88.8614 129° Southeast 461 531 36,500 645 Climbing Memphis Center
Fri 04:50:24 AM 33.9544 -88.7289 128° Southeast 475 547 37,000 248 Climbing Memphis Center
Fri 04:51:24 AM 33.8686 -88.6028 129° Southeast 484 557 37,000  Level Memphis Center
Fri 04:52:25 AM 33.7839 -88.4772 129° Southeast 486 559 37,000  Level Memphis Center
Fri 04:53:25 AM 33.6994 -88.3525 129° Southeast 486 559 37,000  Level Memphis Center
Fri 04:54:25 AM 33.6147 -88.2275 129° Southeast 486 559 37,000  Level Memphis Center
Fri 04:55:26 AM 33.5297 -88.1042 130° Southeast 486 559 37,000  Level Memphis Center
Fri 04:56:26 AM 33.4464 -87.9822 129° Southeast 482 555 37,000  Level Memphis Center
Fri 04:57:26 AM 33.3611 -87.8589 130° Southeast 481 554 37,000  Level Memphis Center
Fri 04:58:27 AM 33.2767 -87.7353 129° Southeast 482 555 37,000  Level Memphis Center
Fri 04:59:27 AM 33.1914 -87.6117 129° Southeast 482 555 37,000  Level Memphis Center
Fri 05:00:28 AM 33.1047 -87.4875 130° Southeast 486 559 37,000  Level Memphis Center
Fri 05:01:28 AM 32.9994 -87.3361 130° Southeast 491 565 37,000  Level Memphis Center
Fri 05:02:28 AM 32.9117 -87.2117 130° Southeast 493 567 37,000  Level Memphis Center
Fri 05:03:29 AM 32.8225 -87.0858 130° Southeast 494 568 37,000  Level Memphis Center
Fri 05:04:55 AM 32.7044 -86.9172 130° Southeast 495 570 37,000  Level Atlanta Center
Fri 05:05:55 AM 32.6114 -86.7908 131° Southeast 495 570 37,000  Level Atlanta Center
Fri 05:06:55 AM 32.5244 -86.6625 129° Southeast 495 570 37,000  Level Atlanta Center
Fri 05:07:55 AM 32.4353 -86.5367 130° Southeast 495 570 37,000 50 Level Atlanta Center
Fri 05:08:55 AM 32.3439 -86.4064 130° Southeast 500 575 37,100  Climbing Atlanta Center
Fri 05:09:55 AM 32.2439 -86.2761 132° Southeast 523 602 37,000 -50 Descending Atlanta Center
Fri 05:10:55 AM 32.1544 -86.1461 129° Southeast 523 602 37,000  Level Atlanta Center
Fri 05:12:46 AM 31.9742 -85.9025 131° Southeast 563 648 37,000  Level Jacksonville Center
Fri 05:13:46 AM 31.8792 -85.7744 131° Southeast 549 632 37,000  Level Jacksonville Center
Fri 05:15:34 AM 31.7067 -85.5422 131° Southeast 538 619 37,000  Level Jacksonville Center
Fri 05:16:34 AM 31.6092 -85.4125 131° Southeast 544 626 37,000  Level Jacksonville Center
Fri 05:17:34 AM 31.5114 -85.2856 132° Southeast 539 620 37,000  Level Jacksonville Center
Fri 05:23:11 AM 30.9545 -84.5451 132° Southeast 526 605 37,000  Level FlightAware ADS-B (KONZ)
Fri 05:24:02 AM 30.8714 -84.4371 132° Southeast 526 605 37,000  Level FlightAware ADS-B (KONZ)
Fri 05:24:44 AM 30.8031 -84.3486 132° Southeast 525 604 37,000  Level FlightAware ADS-B (KONZ)
Fri 05:25:26 AM 30.7419 -84.2686 132° Southeast 526 605 37,000  Level FlightAware ADS-B (KONZ)
Fri 05:25:56 AM 30.6899 -84.2010 132° Southeast 528 608 37,000  Level FlightAware ADS-B (KONZ)
Fri 05:26:28 AM 30.6377 -84.1335 132° Southeast 528 608 37,000  Level FlightAware ADS-B (KONZ)
Fri 05:27:06 AM 30.5719 -84.0492 132° Southeast 530 610 37,000  Level FlightAware ADS-B (KONZ)
Fri 05:27:46 AM 30.5058 -83.9644 132° Southeast 533 613 37,000  Level FlightAware ADS-B (KONZ)
Fri 05:28:16 AM 30.4564 -83.9008 132° Southeast 533 613 37,000 100 Level FlightAware ADS-B (KONZ)
Fri 05:28:46 AM 30.4066 -83.8369 132° Southeast 534 615 37,100 87 Climbing FlightAware ADS-B (KONZ)
Fri 05:29:25 AM 30.3411 -83.7523 132° Southeast 533 613 37,100  Level FlightAware ADS-B (KONZ)
Fri 05:30:05 AM 30.2766 -83.6700 132° Southeast 528 608 37,100 -69 Level FlightAware ADS-B (KONZ)
Fri 05:30:52 AM 30.1997 -83.5721 132° Southeast 525 604 37,000 -135 Descending FlightAware ADS-B (KONZ)
Fri 05:31:34 AM 30.1461 -83.5050 132° Southeast 521 600 36,900 -59 Descending Jacksonville Center
Fri 05:32:34 AM 30.0483 -83.3819 133° Southeast 521 600 36,900 50 Level Jacksonville Center
Fri 05:33:34 AM 29.9508 -83.2569 132° Southeast 521 600 37,000 50 Climbing Jacksonville Center
Fri 05:34:34 AM 29.8467 -83.1297 133° Southeast 532 612 37,000 -1,250 Level Jacksonville Center
Fri 05:35:34 AM 29.7486 -83.0050 132° Southeast 532 612 34,500 -2,500 Descending Jacksonville Center
Fri 05:36:34 AM 29.6486 -82.8783 132° Southeast 527 606 32,000 -2,200 Descending Jacksonville Center
Fri 05:37:34 AM 29.5503 -82.7589 133° Southeast 527 606 30,100 -2,300 Descending Jacksonville Center
Fri 05:38:34 AM 29.4436 -82.6231 132° Southeast 528 608 27,400 -2,700 Descending Jacksonville Center
Fri 05:39:34 AM 29.3536 -82.5114 133° Southeast 514 592 24,700 -2,650 Descending Jacksonville Center
Fri 05:40:34 AM 29.2656 -82.4047 133° Southeast 484 557 22,100 -2,900 Descending Jacksonville Center
Fri 05:41:34 AM 29.1836 -82.3028 133° Southeast 453 521 18,900 -2,750 Descending Jacksonville Center
Fri 05:42:34 AM 29.1039 -82.2033 133° Southeast 431 496 16,600 -2,450 Descending Jacksonville Center
Fri 05:43:34 AM 29.0303 -82.1136 133° Southeast 407 468 14,000 -2,400 Descending Jacksonville Center
Fri 05:44:34 AM 28.9589 -82.0264 133° Southeast 390 449 11,800 -1,328 Descending Jacksonville Center
Fri 05:50:25 AM 28.7245 -81.5097 113° Southeast 260 299 4,900 -1,220 Descending FlightAware ADS-B (KSFB)
Fri 05:50:43 AM 28.7167 -81.4882 113° Southeast 257 296 4,300 -1,610 Descending FlightAware ADS-B (KSFB)
Fri 05:51:06 AM 28.7084 -81.4662 113° Southeast 247 284 3,800 -750 Descending FlightAware ADS-B (KSFB)
Fri 05:51:23 AM 28.6981 -81.4384 111° Southeast 244 281 3,800  Level FlightAware ADS-B (KSFB)
Fri 05:51:45 AM 28.6902 -81.4153 112° Southeast 223 257 3,800  Level FlightAware ADS-B (KSFB)
Fri 05:52:05 AM 28.6810 -81.3913 113° Southeast 229 264 3,800  Level FlightAware ADS-B (KSFB)
Fri 05:52:26 AM 28.6732 -81.3702 113° Southeast 224 258 3,800  Level FlightAware ADS-B (KSFB)
Fri 05:52:46 AM 28.6642 -81.3457 114° Southeast 218 251 3,800  Level FlightAware ADS-B (KSFB)
Fri 05:52:55 AM 28.6603 -81.3376 123° Southeast 217 250 3,800 -414 Level FlightAware ADS-B (KSFB)
Fri 05:53:15 AM 28.6441 -81.3252 169° South 211 243 3,600 -732 Descending FlightAware ADS-B (KSFB)
Fri 05:53:36 AM 28.6241 -81.3251 183° South 204 235 3,300 -973 Descending FlightAware ADS-B (KSFB)
Fri 05:53:52 AM 28.6105 -81.3252 179° South 201 231 3,000 -1,029 Descending FlightAware ADS-B (KSFB)
Fri 05:54:11 AM 28.5920 -81.3246 180° South 191 220 2,700 -923 Descending FlightAware ADS-B (KSFB)
Fri 05:54:31 AM 28.5825 -81.3246 180° South 182 209 2,400 -837 Descending FlightAware ADS-B (KSFB)
Fri 05:54:54 AM 28.5607 -81.3244 180° South 174 200 2,100 -900 Descending FlightAware ADS-B (KSFB)
Fri 05:55:11 AM 28.5424 -81.3241 179° South 168 193 1,800 -675 Descending FlightAware ADS-B (KSFB)
Fri 05:56:14 AM 28.5000 -81.3167 179° South 133 153 1,200 -634 Descending Orlando TRACON
Fri 05:57:14 AM 28.4667 -81.3167 180° South 134 154 500 -700 Descending Orlando TRACON

Login

Don't have an account? Register now (free) for customized features, flight alerts, and more!